Time;durP1;ratioP1;P1;durP2;ratioP2;P2;SDS_P1;SDS_P2;PMS_P1;PMS_P2;Temp;Humidity;BMP_temperature;BMP_pressure;BME280_temperature;BME280_humidity;BME280_pressure;Samples;Min_cycle;Max_cycle;Signal;HPM_P1;HPM_P2
2023/04/11 00:00:08;;;;;;;13.63;10.68;;;;;;;6.05;65.52;93628.63;5008760;28;20032;-75
2023/04/11 00:02:33;;;;;;;13.40;10.65;;;;;;;5.83;65.86;93602.81;5009793;28;20554;-76
2023/04/11 00:04:59;;;;;;;12.80;10.63;;;;;;;6.08;66.18;93627.25;5008856;28;20033;-76
2023/04/11 00:07:25;;;;;;;13.95;10.90;;;;;;;6.02;65.92;93602.03;5009491;28;20079;-76
2023/04/11 00:09:51;;;;;;;14.10;9.88;;;;;;;6.06;65.59;93597.72;5009192;28;20069;-75
2023/04/11 00:12:16;;;;;;;14.48;10.38;;;;;;;6.07;66.05;93617.78;5008140;28;20053;-75
2023/04/11 00:14:47;;;;;;;15.00;11.15;;;;;;;5.91;66.20;93596.91;5014050;28;20164;-76
2023/04/11 00:17:14;;;;;;;12.55;10.25;;;;;;;5.86;66.78;93602.28;5008834;28;20033;-75
2023/04/11 00:19:42;;;;;;;13.30;10.00;;;;;;;5.64;66.34;93544.03;5022788;28;20041;-76
2023/04/11 00:22:08;;;;;;;14.68;10.50;;;;;;;5.94;66.20;93593.69;5008118;28;20029;-75
2023/04/11 00:24:34;;;;;;;14.00;10.98;;;;;;;6.08;65.67;93585.00;5008816;28;20088;-77
2023/04/11 00:27:00;;;;;;;13.02;10.25;;;;;;;6.28;65.52;93592.63;5009807;28;20033;-76
2023/04/11 00:29:25;;;;;;;13.68;10.65;;;;;;;6.15;64.70;93574.88;5008353;28;20652;-75
2023/04/11 00:31:54;;;;;;;14.55;11.05;;;;;;;6.20;65.54;93603.84;5009810;28;20121;-75
2023/04/11 00:34:19;;;;;;;13.25;10.05;;;;;;;6.11;64.74;93579.16;5008533;28;20128;-76
2023/04/11 00:36:45;;;;;;;13.65;10.38;;;;;;;6.16;64.54;93577.25;5008332;28;20403;-76
2023/04/11 00:39:11;;;;;;;14.43;10.82;;;;;;;6.36;64.02;93603.28;5009129;28;20504;-76
2023/04/11 00:41:37;;;;;;;13.15;10.40;;;;;;;6.23;64.88;93595.34;5007126;28;20033;-76
2023/04/11 00:44:02;;;;;;;14.30;10.32;;;;;;;5.86;64.48;93541.56;5009791;28;20049;-76
2023/04/11 00:46:29;;;;;;;13.48;10.30;;;;;;;5.91;64.91;93569.72;5006749;28;20030;-75
2023/04/11 00:48:55;;;;;;;15.43;10.80;;;;;;;5.99;65.96;93601.53;5007102;28;20029;-76
2023/04/11 00:51:21;;;;;;;12.43;9.98;;;;;;;5.87;66.11;93579.31;5009214;28;20516;-76
2023/04/11 00:53:47;;;;;;;11.77;10.10;;;;;;;6.04;65.73;93594.59;5008768;28;20039;-77
2023/04/11 00:56:12;;;;;;;13.02;10.02;;;;;;;5.96;65.65;93594.19;5008616;28;20026;-76
2023/04/11 00:58:39;;;;;;;12.98;9.70;;;;;;;6.06;65.56;93582.69;5005976;28;20371;-76
2023/04/11 01:01:08;;;;;;;12.48;10.23;;;;;;;6.09;65.77;93597.94;5006827;28;20072;-76
2023/04/11 01:03:37;;;;;;;13.52;10.73;;;;;;;6.05;65.98;93580.31;5008905;28;20021;-77
2023/04/11 01:06:08;;;;;;;17.35;10.98;;;;;;;6.31;64.99;93597.34;5003051;28;20034;-75
2023/04/11 01:08:35;;;;;;;12.18;10.32;;;;;;;6.22;64.93;93593.78;5005929;28;20656;-77
2023/04/11 01:11:02;;;;;;;14.00;10.05;;;;;;;6.02;65.37;93582.44;5007191;28;20119;-76
2023/04/11 01:13:29;;;;;;;15.35;11.50;;;;;;;5.70;66.01;93547.38;5006224;28;20107;-75
2023/04/11 01:15:55;;;;;;;14.52;10.65;;;;;;;5.68;66.57;93591.72;5007813;28;20041;-75
2023/04/11 01:18:20;;;;;;;13.95;9.52;;;;;;;5.79;66.74;93604.47;5007707;28;20034;-76
2023/04/11 01:20:46;;;;;;;13.32;10.18;;;;;;;5.39;67.55;93578.69;5007292;28;20033;-75
2023/04/11 01:23:13;;;;;;;13.30;10.93;;;;;;;5.39;67.90;93581.34;5006666;28;20037;-76
2023/04/11 01:25:39;;;;;;;13.45;10.63;;;;;;;5.54;67.46;93586.38;5005974;28;20080;-77
2023/04/11 01:28:07;;;;;;;13.68;10.68;;;;;;;5.77;66.93;93595.28;5004602;28;20033;-75
2023/04/11 01:30:33;;;;;;;15.85;12.13;;;;;;;6.02;66.70;93612.59;5007414;28;20108;-75
2023/04/11 01:32:59;;;;;;;12.75;9.82;;;;;;;5.94;65.73;93584.97;5007685;28;20052;-76
2023/04/11 01:35:24;;;;;;;14.70;10.27;;;;;;;6.02;66.01;93586.19;5005353;28;20080;-77
2023/04/11 01:37:50;;;;;;;13.93;10.50;;;;;;;6.16;65.49;93590.47;5005894;28;20341;-75
2023/04/11 01:40:17;;;;;;;14.32;10.65;;;;;;;6.28;64.60;93605.81;5008107;28;20152;-75
2023/04/11 01:42:44;;;;;;;13.82;10.32;;;;;;;6.18;64.91;93584.88;5007849;28;20025;-76
2023/04/11 01:45:11;;;;;;;15.27;11.75;;;;;;;6.22;65.31;93606.97;5014422;28;20082;-76
2023/04/11 01:47:37;;;;;;;13.55;10.70;;;;;;;5.97;65.23;93579.09;5005809;28;21036;-75
2023/04/11 01:50:03;;;;;;;15.25;11.80;;;;;;;5.94;65.47;93577.06;5007866;28;20054;-75
2023/04/11 01:52:28;;;;;;;15.98;11.27;;;;;;;5.84;66.48;93596.47;5007151;28;20068;-75
2023/04/11 01:54:54;;;;;;;14.98;11.68;;;;;;;5.78;66.77;93597.63;5008485;28;20634;-75
2023/04/11 01:57:19;;;;;;;15.45;11.05;;;;;;;5.67;67.47;93580.41;5005822;28;20140;-76
2023/04/11 01:59:45;;;;;;;17.20;12.43;;;;;;;5.61;67.64;93580.75;5007485;28;20396;-76
2023/04/11 02:02:10;;;;;;;15.52;10.82;;;;;;;5.70;67.09;93571.91;5007964;28;20144;-75
2023/04/11 02:04:35;;;;;;;13.82;10.77;;;;;;;5.71;67.56;93573.47;5004867;28;20033;-75
2023/04/11 02:07:01;;;;;;;15.75;11.18;;;;;;;5.90;66.93;93581.34;5003158;28;20033;-75
2023/04/11 02:09:26;;;;;;;15.95;11.38;;;;;;;6.02;66.27;93575.63;5007748;28;20069;-75
2023/04/11 02:11:51;;;;;;;18.08;12.00;;;;;;;6.02;65.91;93561.34;5003468;28;20716;-76
2023/04/11 02:14:19;;;;;;;16.35;11.57;;;;;;;6.20;65.51;93585.38;5008029;28;20037;-76
2023/04/11 02:17:05;;;;;;;14.23;10.57;;;;;;;6.21;65.43;93585.09;5011996;28;20417;-76
2023/04/11 02:19:31;;;;;;;15.95;11.82;;;;;;;6.11;64.29;93560.69;4996258;28;20254;-76
2023/04/11 02:21:56;;;;;;;18.70;12.48;;;;;;;5.92;65.33;93563.38;4998627;28;20548;-77
2023/04/11 02:24:21;;;;;;;16.23;11.63;;;;;;;5.76;65.86;93562.06;5002982;28;20046;-73
2023/04/11 02:26:47;;;;;;;16.90;12.18;;;;;;;5.98;65.40;93586.75;5003870;28;20586;-78
2023/04/11 02:29:12;;;;;;;16.00;11.88;;;;;;;5.97;65.53;93560.63;5005770;28;20164;-77
2023/04/11 02:31:37;;;;;;;18.25;13.63;;;;;;;6.14;64.70;93586.50;5006390;28;20554;-77
2023/04/11 02:34:03;;;;;;;17.60;12.45;;;;;;;5.98;65.50;93585.97;5006494;28;20057;-77
2023/04/11 02:36:28;;;;;;;14.32;11.00;;;;;;;6.10;65.54;93585.50;5006662;28;20029;-77
2023/04/11 02:38:54;;;;;;;16.15;12.13;;;;;;;5.81;65.30;93569.91;5004840;28;20032;-76
2023/04/11 02:41:19;;;;;;;19.08;13.60;;;;;;;5.79;66.09;93587.84;5005087;28;20034;-75
2023/04/11 02:43:45;;;;;;;17.45;12.63;;;;;;;5.75;66.35;93585.03;5006491;28;20622;-77
2023/04/11 02:46:10;;;;;;;20.02;12.75;;;;;;;5.73;66.41;93594.28;5006244;28;20029;-75
2023/04/11 02:48:35;;;;;;;19.23;13.85;;;;;;;5.71;66.06;93578.75;5005709;28;20439;-76
2023/04/11 02:51:01;;;;;;;18.58;12.65;;;;;;;5.74;65.99;93574.75;5005031;28;20540;-75
2023/04/11 02:53:26;;;;;;;20.20;13.88;;;;;;;5.90;65.15;93586.63;5005133;28;20091;-76
2023/04/11 02:55:51;;;;;;;17.27;13.20;;;;;;;5.55;65.87;93551.03;5003698;28;20065;-77
2023/04/11 02:58:18;;;;;;;18.58;13.05;;;;;;;5.71;65.95;93584.03;5005805;28;20133;-77
2023/04/11 03:00:44;;;;;;;20.40;13.95;;;;;;;5.71;66.01;93570.84;5005790;28;20391;-76
2023/04/11 03:03:10;;;;;;;18.05;12.75;;;;;;;5.68;65.69;93557.41;5004355;28;20041;-77
2023/04/11 03:05:36;;;;;;;17.67;13.50;;;;;;;5.63;65.31;93546.97;5005604;28;20037;-76
2023/04/11 03:08:02;;;;;;;21.98;13.70;;;;;;;5.82;64.99;93566.94;5005521;28;20037;-77
2023/04/11 03:10:27;;;;;;;18.50;13.32;;;;;;;5.76;65.13;93562.84;5004996;28;20421;-77
2023/04/11 03:12:52;;;;;;;18.60;13.15;;;;;;;5.26;65.70;93505.59;5003401;28;20136;-76
2023/04/11 03:15:18;;;;;;;16.98;12.32;;;;;;;5.64;65.40;93565.13;5005184;28;20046;-76
2023/04/11 03:17:43;;;;;;;20.45;14.43;;;;;;;5.64;65.40;93565.13;5004943;28;20555;-76
2023/04/11 03:20:10;;;;;;;19.48;13.90;;;;;;;5.61;65.48;93565.72;5005526;28;20044;-76
2023/04/11 03:22:37;;;;;;;19.50;13.73;;;;;;;5.58;64.98;93571.56;5004665;28;20029;-75
2023/04/11 03:25:04;;;;;;;19.45;14.35;;;;;;;5.55;65.27;93572.13;5019038;28;20061;-76
2023/04/11 03:27:29;;;;;;;19.58;13.68;;;;;;;5.44;65.79;93562.81;5004301;28;20017;-76
2023/04/11 03:29:55;;;;;;;22.38;14.13;;;;;;;5.54;65.75;93554.75;5004262;28;20198;-76
2023/04/11 03:32:20;;;;;;;17.67;13.45;;;;;;;5.68;65.27;93566.13;5005376;28;20083;-77
2023/04/11 03:34:45;;;;;;;18.67;14.23;;;;;;;5.46;64.82;93544.84;5003957;28;20373;-75
2023/04/11 03:37:11;;;;;;;16.88;12.32;;;;;;;5.29;65.58;93552.47;5004958;28;20314;-76
2023/04/11 03:39:36;;;;;;;20.00;15.02;;;;;;;5.46;65.95;93563.31;5005228;28;20028;-76
2023/04/11 03:42:01;;;;;;;19.35;15.45;;;;;;;5.40;64.83;93532.81;5005217;28;20042;-76
2023/04/11 03:44:27;;;;;;;23.05;15.25;;;;;;;5.38;65.13;93550.78;5003350;28;20070;-75
2023/04/11 03:46:52;;;;;;;20.48;15.05;;;;;;;5.34;65.53;93555.03;5006225;28;20791;-76
2023/04/11 03:49:18;;;;;;;20.08;15.07;;;;;;;5.41;65.56;93577.34;5004731;28;20041;-77
2023/04/11 03:51:45;;;;;;;19.88;14.25;;;;;;;5.18;66.93;93570.31;5003400;28;20544;-77
2023/04/11 03:54:10;;;;;;;21.77;14.88;;;;;;;5.14;66.87;93569.28;5004456;28;20399;-77
2023/04/11 03:56:35;;;;;;;21.63;14.68;;;;;;;4.97;67.40;93556.63;5005013;28;20056;-77
2023/04/11 03:59:01;;;;;;;22.20;15.50;;;;;;;5.00;67.32;93545.50;5004067;28;20040;-77
2023/04/11 04:01:26;;;;;;;23.60;16.50;;;;;;;5.07;67.28;93567.03;5004271;28;20306;-76
2023/04/11 04:03:51;;;;;;;24.90;16.02;;;;;;;4.67;68.16;93549.09;5002579;28;20365;-76
2023/04/11 04:06:17;;;;;;;23.25;15.52;;;;;;;4.84;68.45;93565.22;5005229;28;20037;-76
2023/04/11 04:08:42;;;;;;;24.90;16.02;;;;;;;4.72;68.40;93548.25;5005016;28;20036;-76
2023/04/11 04:11:07;;;;;;;23.40;16.88;;;;;;;4.74;68.73;93573.25;5011907;28;20056;-76
2023/04/11 04:13:33;;;;;;;20.75;13.93;;;;;;;4.85;68.07;93553.59;5003827;28;20053;-77
2023/04/11 04:15:58;;;;;;;23.30;15.15;;;;;;;4.70;67.53;93530.06;5004872;28;20488;-77
2023/04/11 04:18:24;;;;;;;22.75;16.42;;;;;;;4.83;68.03;93555.75;5005673;28;20460;-75
2023/04/11 04:20:49;;;;;;;21.80;15.80;;;;;;;4.99;67.61;93569.53;5003487;28;20052;-76
2023/04/11 04:23:16;;;;;;;21.38;15.32;;;;;;;5.10;67.42;93566.44;5005301;28;20038;-76
2023/04/11 04:25:46;;;;;;;21.88;16.35;;;;;;;4.91;66.82;93549.06;5005513;28;20057;-76
2023/04/11 04:28:13;;;;;;;22.50;15.70;;;;;;;4.96;67.62;93570.84;5003678;28;21036;-76
2023/04/11 04:30:39;;;;;;;25.60;16.02;;;;;;;4.76;67.47;93541.34;5004110;28;20068;-75
2023/04/11 04:33:04;;;;;;;24.83;16.50;;;;;;;4.98;67.44;93570.56;5006933;28;20759;-75
2023/04/11 04:35:30;;;;;;;24.58;16.70;;;;;;;4.81;68.50;93557.88;5005070;28;20040;-76
2023/04/11 04:37:55;;;;;;;23.00;15.52;;;;;;;4.92;67.94;93559.31;5007453;28;20045;-73
2023/04/11 04:40:21;;;;;;;21.17;15.48;;;;;;;5.10;66.86;93558.53;5008185;28;20559;-75
2023/04/11 04:42:57;;;;;;;27.20;17.23;;;;;;;5.02;66.82;93564.47;5007822;28;20022;-75
2023/04/11 04:45:24;;;;;;;24.52;16.75;;;;;;;5.16;66.83;93566.38;5008811;28;20056;-76
2023/04/11 04:47:49;;;;;;;21.58;15.68;;;;;;;5.14;66.28;93551.63;5007286;28;20603;-76
2023/04/11 04:50:15;;;;;;;23.45;16.30;;;;;;;5.41;65.60;93566.03;5010023;28;20128;-76
2023/04/11 04:52:40;;;;;;;25.55;16.90;;;;;;;5.55;65.16;93561.59;5008057;28;20037;-77
2023/04/11 04:55:06;;;;;;;23.25;15.68;;;;;;;5.38;64.42;93535.72;5009503;28;20494;-76
2023/04/11 04:57:31;;;;;;;24.23;15.60;;;;;;;5.32;64.34;93541.38;5007241;28;20123;-77
2023/04/11 04:59:57;;;;;;;27.08;18.50;;;;;;;5.36;64.62;93571.38;5009415;28;20043;-77
2023/04/11 05:02:26;;;;;;;22.63;16.75;;;;;;;5.09;64.97;93549.06;5006639;28;20033;-76
2023/04/11 05:04:55;;;;;;;23.48;16.65;;;;;;;5.12;65.46;93547.72;5006350;28;20025;-77
2023/04/11 05:07:20;;;;;;;24.63;17.67;;;;;;;5.06;65.49;93547.00;5006421;28;20038;-74
2023/04/11 05:09:46;;;;;;;25.35;17.75;;;;;;;5.03;66.29;93558.13;5006528;28;20061;-75
2023/04/11 05:12:13;;;;;;;24.88;18.67;;;;;;;4.86;66.42;93542.00;5006907;28;20487;-74
2023/04/11 05:14:38;;;;;;;26.60;16.60;;;;;;;4.71;66.67;93542.19;5006479;28;20057;-77
2023/04/11 05:17:05;;;;;;;23.95;16.90;;;;;;;4.78;67.08;93552.38;5008886;28;20382;-76
2023/04/11 05:19:31;;;;;;;23.45;16.98;;;;;;;4.59;67.47;93549.72;5007193;28;20038;-76
2023/04/11 05:21:56;;;;;;;28.33;18.52;;;;;;;4.42;68.18;93557.28;5008329;28;20382;-76
2023/04/11 05:24:22;;;;;;;30.55;20.13;;;;;;;4.44;68.72;93547.25;5008476;28;20504;-76
2023/04/11 05:26:47;;;;;;;25.38;17.50;;;;;;;4.60;68.01;93567.09;5009646;28;20033;-76
2023/04/11 05:29:12;;;;;;;25.75;18.08;;;;;;;4.52;68.01;93554.53;5005793;28;20065;-74
2023/04/11 05:31:38;;;;;;;22.85;16.42;;;;;;;4.40;68.28;93547.06;5005388;28;20088;-75
2023/04/11 05:34:03;;;;;;;26.30;17.33;;;;;;;4.42;68.78;93552.00;5005159;28;20447;-74
2023/04/11 05:36:29;;;;;;;23.00;17.10;;;;;;;4.38;68.59;93528.09;5008039;28;20022;-76
2023/04/11 05:38:54;;;;;;;23.33;16.98;;;;;;;4.30;68.74;93525.31;5008043;28;20041;-75
2023/04/11 05:41:20;;;;;;;25.65;17.73;;;;;;;4.48;68.69;93545.63;5006722;28;20670;-76
2023/04/11 05:43:45;;;;;;;24.55;17.30;;;;;;;4.39;69.26;93534.16;5006647;28;20406;-77
2023/04/11 05:46:11;;;;;;;24.15;17.05;;;;;;;4.32;68.82;93523.16;5005495;28;20464;-76
2023/04/11 05:48:37;;;;;;;24.58;16.67;;;;;;;4.64;69.02;93539.91;5010204;28;20021;-76
2023/04/11 05:51:03;;;;;;;25.50;18.40;;;;;;;4.58;68.03;93516.53;5004948;28;20100;-76
2023/04/11 05:53:28;;;;;;;20.50;15.35;;;;;;;4.77;68.22;93533.16;5010219;28;20084;-76
2023/04/11 05:55:53;;;;;;;22.42;15.50;;;;;;;4.78;68.29;93542.63;5006147;28;20033;-77
2023/04/11 05:58:19;;;;;;;22.63;15.75;;;;;;;4.86;68.63;93544.63;5007320;28;20040;-77
2023/04/11 06:00:44;;;;;;;24.10;17.25;;;;;;;4.73;68.27;93497.91;5007388;28;20473;-75
2023/04/11 06:03:11;;;;;;;21.00;14.75;;;;;;;5.00;67.27;93542.06;5006433;28;20038;-77
2023/04/11 06:05:36;;;;;;;21.65;15.93;;;;;;;5.00;67.66;93537.59;5006332;28;20045;-76
2023/04/11 06:08:03;;;;;;;19.25;14.15;;;;;;;4.89;67.26;93538.81;5006452;28;20643;-75
2023/04/11 06:10:30;;;;;;;19.25;13.80;;;;;;;4.76;67.83;93523.69;5006641;28;20091;-75
2023/04/11 06:12:56;;;;;;;24.65;16.75;;;;;;;4.96;68.37;93528.69;5006423;28;20052;-75
2023/04/11 06:15:22;;;;;;;21.00;14.50;;;;;;;5.10;67.63;93521.63;5006988;28;20048;-74
2023/04/11 06:17:48;;;;;;;19.83;14.73;;;;;;;5.07;67.45;93516.94;5005140;28;20033;-74
2023/04/11 06:20:14;;;;;;;20.55;15.13;;;;;;;5.32;66.57;93515.00;5005680;28;20115;-75
2023/04/11 06:22:40;;;;;;;20.13;14.13;;;;;;;5.35;66.24;93512.56;5006055;28;20168;-74
2023/04/11 06:25:06;;;;;;;19.75;14.60;;;;;;;5.21;66.58;93498.56;5005866;28;20021;-74
2023/04/11 06:27:32;;;;;;;21.50;14.70;;;;;;;5.35;65.63;93512.56;5006685;28;20060;-74
2023/04/11 06:29:57;;;;;;;23.27;17.30;;;;;;;5.24;65.87;93503.22;5004656;28;20151;-76
2023/04/11 06:32:24;;;;;;;21.23;14.80;;;;;;;5.44;66.22;93517.97;5003898;28;20033;-74
2023/04/11 06:34:50;;;;;;;20.80;13.82;;;;;;;5.36;65.73;93492.25;5007568;28;20068;-74
2023/04/11 06:37:15;;;;;;;17.50;13.52;;;;;;;5.48;65.25;93503.16;5008147;28;20203;-74
2023/04/11 06:39:41;;;;;;;18.30;13.30;;;;;;;5.34;66.09;93505.72;5005599;28;20025;-75
2023/04/11 06:42:06;;;;;;;20.08;13.50;;;;;;;5.39;66.69;93510.13;5011672;28;20095;-74
2023/04/11 06:44:32;;;;;;;16.25;12.80;;;;;;;5.27;66.43;93488.72;5006960;28;20033;-74
2023/04/11 06:46:57;;;;;;;19.15;14.20;;;;;;;5.50;65.67;93504.41;5004460;28;20164;-75
2023/04/11 06:49:23;;;;;;;20.95;14.65;;;;;;;5.47;66.31;93506.84;5021230;28;20053;-76
2023/04/11 06:51:49;;;;;;;17.75;13.60;;;;;;;5.42;65.85;93493.75;5005991;28;20017;-76
2023/04/11 06:54:15;;;;;;;17.23;13.35;;;;;;;5.50;65.90;93501.78;5004384;28;20587;-74
2023/04/11 06:56:41;;;;;;;16.92;12.82;;;;;;;5.67;66.07;93521.56;5006174;28;20034;-78
2023/04/11 06:59:06;;;;;;;17.48;13.35;;;;;;;5.58;65.29;93497.69;5002459;28;20045;-76
2023/04/11 07:01:38;;;;;;;16.67;13.15;;;;;;;5.54;65.50;93499.34;5006802;28;20641;-77
2023/04/11 07:04:04;;;;;;;16.25;13.00;;;;;;;5.52;66.07;93517.31;5006121;28;20436;-77
2023/04/11 07:06:30;;;;;;;17.85;13.18;;;;;;;5.70;66.25;93519.13;5005605;28;20026;-78
2023/04/11 07:08:55;;;;;;;18.83;13.73;;;;;;;5.68;65.81;93500.16;5003532;28;20051;-76
2023/04/11 07:11:21;;;;;;;17.23;12.27;;;;;;;5.75;65.09;93497.94;5003837;28;20440;-76
2023/04/11 07:13:46;;;;;;;17.88;12.48;;;;;;;5.90;64.07;93497.69;5004159;28;20037;-74
2023/04/11 07:16:12;;;;;;;16.83;12.80;;;;;;;6.14;63.94;93526.56;5007185;28;20110;-77
2023/04/11 07:18:37;;;;;;;16.52;11.85;;;;;;;6.05;62.85;93501.91;5008762;28;20037;-76
2023/04/11 07:21:03;;;;;;;15.85;10.82;;;;;;;5.78;63.35;93496.56;5005680;28;20036;-77
2023/04/11 07:23:29;;;;;;;16.95;11.25;;;;;;;5.88;63.35;93515.66;5005960;28;20449;-77
2023/04/11 07:25:54;;;;;;;15.85;11.75;;;;;;;5.71;64.11;93475.84;5004643;28;20029;-76
2023/04/11 07:28:20;;;;;;;16.33;11.50;;;;;;;6.14;63.01;93507.28;5007759;28;20034;-77
2023/04/11 07:30:46;;;;;;;14.90;11.15;;;;;;;6.16;62.29;93516.53;5006976;28;20427;-77
2023/04/11 07:33:11;;;;;;;15.85;11.85;;;;;;;5.97;63.28;93505.97;5004048;28;20047;-75
2023/04/11 07:35:37;;;;;;;13.65;10.60;;;;;;;6.06;62.20;93494.78;5005236;28;20072;-77
2023/04/11 07:38:03;;;;;;;16.08;12.45;;;;;;;6.05;62.80;93491.34;5003929;28;20042;-78
2023/04/11 07:40:29;;;;;;;15.35;11.20;;;;;;;6.05;62.26;93488.72;5005224;28;20026;-77
2023/04/11 07:42:55;;;;;;;16.33;11.48;;;;;;;5.95;62.86;93471.19;5003349;28;20017;-76
2023/04/11 07:45:20;;;;;;;15.63;10.95;;;;;;;6.02;63.08;93461.03;5005267;28;20407;-77
2023/04/11 07:47:46;;;;;;;13.18;10.20;;;;;;;6.21;62.10;93482.09;5002788;28;20041;-77
2023/04/11 07:50:11;;;;;;;15.63;11.13;;;;;;;6.36;61.97;93484.44;5007767;28;20040;-76
2023/04/11 07:52:37;;;;;;;13.82;10.40;;;;;;;6.37;61.06;93472.00;5003996;28;20029;-73
2023/04/11 07:55:03;;;;;;;13.35;10.57;;;;;;;6.38;61.09;93489.41;5005100;28;20483;-77
2023/04/11 07:57:28;;;;;;;14.80;10.35;;;;;;;6.31;61.23;93475.84;5005574;28;20029;-76
2023/04/11 07:59:55;;;;;;;13.93;10.60;;;;;;;6.51;62.58;93477.28;5004193;28;20575;-76
2023/04/11 08:02:22;;;;;;;14.05;9.65;;;;;;;6.61;61.52;93475.22;5003602;28;20404;-75
2023/04/11 08:04:47;;;;;;;13.27;9.73;;;;;;;6.64;60.71;93463.28;5004381;28;20053;-75
2023/04/11 08:07:13;;;;;;;13.18;9.45;;;;;;;6.60;59.59;93465.75;5003655;28;20029;-75
2023/04/11 08:09:38;;;;;;;14.20;9.50;;;;;;;6.64;60.11;93455.34;5004441;28;20419;-74
2023/04/11 08:12:05;;;;;;;20.05;11.63;;;;;;;6.86;61.53;93461.47;5008386;28;20042;-74
2023/04/11 08:14:30;;;;;;;13.25;8.05;;;;;;;6.80;57.53;93444.13;5007915;28;20037;-75
2023/04/11 08:16:55;;;;;;;10.95;8.98;;;;;;;6.83;57.92;93434.84;5012583;28;20038;-74
2023/04/11 08:19:21;;;;;;;14.55;9.65;;;;;;;7.01;56.83;93462.19;5006719;28;20045;-74
2023/04/11 08:21:46;;;;;;;13.18;9.02;;;;;;;6.83;56.87;93443.56;5011175;28;20033;-74
2023/04/11 08:24:11;;;;;;;9.77;8.27;;;;;;;6.86;57.29;93437.66;5006961;28;20047;-77
2023/04/11 08:26:37;;;;;;;27.88;20.98;;;;;;;6.83;57.05;93432.19;5008543;28;20041;-75
2023/04/11 08:29:02;;;;;;;23.33;17.67;;;;;;;6.99;56.57;93451.94;5012259;28;20069;-74
2023/04/11 08:31:28;;;;;;;12.57;9.50;;;;;;;6.98;56.75;93442.44;5009697;28;20609;-77
2023/04/11 08:33:54;;;;;;;11.23;8.05;;;;;;;6.82;56.06;93430.63;5006957;28;20072;-76
2023/04/11 08:36:20;;;;;;;12.05;9.27;;;;;;;6.91;57.12;93438.63;5009403;28;20030;-76
2023/04/11 08:38:45;;;;;;;16.33;10.98;;;;;;;6.80;56.88;93401.84;5006322;28;20084;-77
2023/04/11 08:41:11;;;;;;;24.45;15.15;;;;;;;7.04;55.81;93430.69;5007533;28;20045;-76
2023/04/11 08:43:39;;;;;;;26.38;17.23;;;;;;;7.06;55.70;93423.22;5015011;28;20118;-77
2023/04/11 08:46:06;;;;;;;13.23;11.30;;;;;;;7.10;55.94;93421.53;5007019;28;20033;-77
2023/04/11 08:48:32;;;;;;;13.60;8.70;;;;;;;7.11;56.25;93423.09;5010245;28;20025;-77
2023/04/11 08:50:58;;;;;;;12.73;8.45;;;;;;;7.15;56.02;93402.09;5006553;28;20645;-76
2023/04/11 08:53:25;;;;;;;15.45;10.07;;;;;;;7.33;57.62;93419.69;5016412;28;20077;-76
2023/04/11 08:55:51;;;;;;;12.20;8.95;;;;;;;7.58;55.22;93411.09;5005618;28;20080;-76
2023/04/11 08:58:17;;;;;;;52.03;31.40;;;;;;;7.64;55.63;93409.88;5007676;28;20461;-77
2023/04/11 09:00:43;;;;;;;90.85;55.67;;;;;;;7.58;55.83;93389.91;5005620;28;20565;-76
2023/04/11 09:03:10;;;;;;;12.35;10.15;;;;;;;7.95;53.80;93414.41;5009225;28;20038;-77
2023/04/11 09:05:39;;;;;;;12.07;9.82;;;;;;;7.98;54.90;93413.78;5006460;28;20033;-77
2023/04/11 09:08:08;;;;;;;17.02;11.02;;;;;;;7.92;54.50;93410.53;5007971;28;20061;-77
2023/04/11 09:10:34;;;;;;;13.50;8.85;;;;;;;7.98;52.83;93403.97;5005769;28;20046;-77
2023/04/11 09:13:00;;;;;;;13.65;10.40;;;;;;;8.07;54.06;93406.69;5013427;28;20033;-76
2023/04/11 09:15:28;;;;;;;12.65;9.07;;;;;;;8.11;53.36;93391.72;5009521;28;20028;-76
2023/04/11 09:17:54;;;;;;;14.55;9.40;;;;;;;8.30;53.89;93394.91;5006843;28;20466;-76
2023/04/11 09:20:25;;;;;;;13.75;9.48;;;;;;;8.27;52.80;93400.78;5007715;28;20395;-76
2023/04/11 09:22:54;;;;;;;33.65;11.10;;;;;;;8.29;53.59;93369.50;5003423;28;20511;-77
2023/04/11 09:25:21;;;;;;;9.88;7.97;;;;;;;8.51;52.27;93382.59;5007943;28;20531;-75
2023/04/11 09:27:48;;;;;;;12.68;9.63;;;;;;;8.65;52.28;93384.34;5006202;28;20029;-77
2023/04/11 09:30:24;;;;;;;13.23;8.95;;;;;;;8.46;52.16;93348.31;5008151;28;20057;-77
2023/04/11 09:32:53;;;;;;;11.07;8.80;;;;;;;8.42;51.58;93339.41;5006990;28;20038;-77
2023/04/11 09:35:24;;;;;;;11.90;8.98;;;;;;;8.59;50.95;93375.78;5006053;28;20042;-76
2023/04/11 09:37:57;;;;;;;12.75;9.98;;;;;;;8.50;52.38;93351.91;5005771;28;20451;-76
2023/04/11 09:40:24;;;;;;;10.68;9.18;;;;;;;8.62;50.93;93353.16;5006711;28;20683;-76
2023/04/11 09:42:59;;;;;;;10.73;9.05;;;;;;;8.70;50.75;93349.75;5008085;28;20153;-76
2023/04/11 09:45:25;;;;;;;13.48;8.75;;;;;;;8.58;49.87;93327.28;5007676;28;20049;-77
2023/04/11 09:47:52;;;;;;;11.68;9.85;;;;;;;8.63;50.16;93349.41;5006714;28;20133;-77
2023/04/11 09:50:18;;;;;;;15.13;9.38;;;;;;;8.82;50.10;93333.97;5007557;28;20030;-78
2023/04/11 09:52:44;;;;;;;12.88;8.82;;;;;;;8.73;49.95;93343.81;5006930;28;20122;-76
2023/04/11 09:55:13;;;;;;;14.25;10.05;;;;;;;8.78;50.74;93331.16;5008887;28;20068;-78
2023/04/11 09:57:49;;;;;;;13.52;9.90;;;;;;;8.94;50.87;93340.22;5005616;28;20026;-76
2023/04/11 10:00:21;;;;;;;14.05;9.82;;;;;;;9.09;49.72;93333.66;5003247;28;20042;-77
2023/04/11 10:02:49;;;;;;;14.75;10.13;;;;;;;9.04;49.27;93333.81;5008339;28;20026;-76
2023/04/11 10:05:17;;;;;;;12.93;9.38;;;;;;;9.00;48.72;93311.63;5004604;28;20137;-76
2023/04/11 10:07:51;;;;;;;40.40;29.88;;;;;;;9.02;48.98;93304.16;5006769;28;20076;-76
2023/04/11 10:10:21;;;;;;;133.07;75.60;;;;;;;8.95;49.36;93304.63;5005726;28;20052;-77
2023/04/11 10:12:47;;;;;;;15.07;11.05;;;;;;;8.95;49.14;93288.72;5007295;28;20601;-76
2023/04/11 10:15:14;;;;;;;11.40;8.73;;;;;;;9.16;49.27;93307.44;5005025;28;20045;-76
2023/04/11 10:17:40;;;;;;;13.60;10.90;;;;;;;9.13;48.44;93289.50;5005984;28;20072;-77
2023/04/11 10:20:30;;;;;;;14.55;9.43;;;;;;;9.27;48.56;93313.97;5004515;28;20034;-75
2023/04/11 10:23:00;;;;;;;12.88;9.57;;;;;;;9.32;48.21;93308.50;5002251;28;20045;-76
2023/04/11 10:25:25;;;;;;;12.73;9.25;;;;;;;9.20;47.74;93300.41;5006486;28;20056;-77
2023/04/11 10:28:00;;;;;;;12.65;9.75;;;;;;;9.29;48.73;93303.03;5005132;28;20033;-76
2023/04/11 10:30:43;;;;;;;12.13;9.65;;;;;;;9.45;47.47;93302.19;5007372;28;20164;-77
2023/04/11 10:33:14;;;;;;;13.65;10.27;;;;;;;9.34;46.74;93274.44;5004437;28;20096;-77
2023/04/11 10:36:09;;;;;;;13.30;9.48;;;;;;;9.74;47.11;93282.09;5006765;28;20188;-77
2023/04/11 10:38:47;;;;;;;63.83;42.10;;;;;;;10.05;46.28;93281.78;5003416;28;20034;-77
2023/04/11 10:41:17;;;;;;;14.55;11.05;;;;;;;9.83;45.84;93253.59;5005802;28;20049;-76
2023/04/11 10:43:44;;;;;;;12.90;9.05;;;;;;;9.93;45.83;93247.91;5005215;28;20500;-77
2023/04/11 10:46:24;;;;;;;11.38;8.60;;;;;;;10.04;45.79;93249.09;5005492;28;20032;-76
2023/04/11 10:49:04;;;;;;;19.65;12.82;;;;;;;9.92;46.06;93254.34;5003958;28;20415;-76
2023/04/11 10:51:31;;;;;;;12.77;9.43;;;;;;;9.92;45.09;93262.31;5007663;28;20049;-76
2023/04/11 10:54:00;;;;;;;12.15;9.60;;;;;;;10.01;45.74;93262.25;5006872;28;20038;-76
2023/04/11 10:56:51;;;;;;;19.95;9.43;;;;;;;10.04;44.34;93259.72;5006395;28;20102;-75
2023/04/11 10:59:35;;;;;;;11.60;8.43;;;;;;;9.94;44.50;93257.44;5003616;28;20038;-77
2023/04/11 11:02:01;;;;;;;11.32;9.02;;;;;;;9.83;45.09;93242.97;5004767;28;20384;-76
2023/04/11 11:04:36;;;;;;;28.55;20.15;;;;;;;9.78;43.99;93245.84;5006128;28;20044;-76
2023/04/11 11:07:04;;;;;;;93.10;41.60;;;;;;;9.80;43.93;93249.72;5002698;28;20025;-76
2023/04/11 11:09:31;;;;;;;61.58;35.25;;;;;;;9.81;45.10;93238.00;5004878;28;20049;-77
2023/04/11 11:12:12;;;;;;;12.30;10.50;;;;;;;9.88;45.88;93235.59;5003307;28;20463;-76
2023/04/11 11:14:39;;;;;;;11.88;9.23;;;;;;;9.99;45.39;93236.00;5011401;28;20382;-77
2023/04/11 11:17:06;;;;;;;12.82;9.07;;;;;;;9.91;44.59;93234.19;5005667;28;20030;-76
2023/04/11 11:19:31;;;;;;;11.30;8.98;;;;;;;9.74;44.35;93224.44;5007725;28;20034;-76
2023/04/11 11:22:02;;;;;;;9.70;8.30;;;;;;;9.52;44.91;93210.69;5006234;28;20538;-77
2023/04/11 11:24:28;;;;;;;14.50;9.77;;;;;;;9.62;45.78;93220.94;5005157;28;20026;-76